Thor-arild — LG9182 — position and weather

sailwx.info

Track history (hours):
 
Tides and Currents Weather Stations Pressure Air Temp Water Temp Dewpoint Dewpoint Depression Visibility Wind Speed Wind Dir Waves Ship Positions

Thor-arild

Last reported at 2017-Nov-16 09:06 UTC. Time now 2017-Nov-23 01:46 UTC.
Position N 71°07' E 025°50'.

Length 15 m.

Type: Fishing. MMSI: 257922600.

Date/timePositionNaut miles runAvg speedWind from/ knotsBaromVisibWave heightAir tempDewpointWater temp
2017-Nov-16 09:06N 71°07' E 025°50'0 1.1
2017-Nov-16 08:58N 71°07' E 025°50'0 0.0
2017-Nov-16 08:28N 71°07' E 025°50'0 0.0
2017-Nov-16 07:58N 71°07' E 025°50'0 0.0
2017-Nov-16 07:25N 71°07' E 025°50'0 0.0
2017-Nov-16 06:58N 71°07' E 025°50'0 0.0
2017-Nov-16 06:28N 71°07' E 025°50'0 0.0
2017-Nov-16 05:55N 71°07' E 025°50'0 0.0
2017-Nov-16 05:28N 71°07' E 025°50'0 0.0
2017-Nov-16 04:55N 71°07' E 025°50'0 0.0
2017-Nov-16 04:28N 71°07' E 025°50'0 0.0
2017-Nov-16 03:58N 71°07' E 025°50'0 0.5
2017-Nov-16 03:30N 71°07' E 025°51'3 5.9
2017-Nov-16 03:00N 71°10' E 025°51'2 4.9
2017-Nov-16 02:30N 71°11' E 025°44'3 5.5
2017-Nov-16 02:00N 71°11' E 025°52'3 6.7
2017-Nov-16 01:30N 71°09' E 026°02'0 0.4
2017-Nov-16 01:00N 71°09' E 026°02'1 1.3
2017-Nov-16 00:30N 71°09' E 026°04'1 1.4
2017-Nov-16 00:00N 71°09' E 026°03'3 5.2
2017-Nov-15 23:30N 71°09' E 025°55'2 4.4
2017-Nov-15 23:00N 71°07' E 025°50'0 0.1
2017-Nov-15 22:30N 71°07' E 025°50'0 0.0
2017-Nov-15 21:57N 71°07' E 025°50'0 0.0
2017-Nov-15 21:24N 71°07' E 025°50'0 0.0
2017-Nov-15 21:00N 71°07' E 025°50'0 0.0
2017-Nov-15 20:27N 71°07' E 025°50'0 0.0
2017-Nov-15 20:00N 71°07' E 025°50'0 0.0
2017-Nov-15 19:27N 71°07' E 025°50'0 0.0
2017-Nov-15 19:00N 71°07' E 025°50'0 0.0
2017-Nov-15 18:30N 71°07' E 025°50'0 0.0
2017-Nov-15 18:00N 71°07' E 025°50'0 0.0
2017-Nov-15 17:30N 71°07' E 025°50'0 0.0
2017-Nov-15 17:00N 71°07' E 025°50'0 0.0
2017-Nov-15 16:30N 71°07' E 025°50'0 0.0
2017-Nov-15 16:00N 71°07' E 025°50'0 0.0
2017-Nov-15 15:30N 71°07' E 025°50'0 0.0
2017-Nov-15 14:57N 71°07' E 025°50'0 0.0
2017-Nov-15 14:30N 71°07' E 025°50'0 0.0
2017-Nov-15 14:00N 71°07' E 025°50'0 0.0
2017-Nov-15 13:30N 71°07' E 025°50'0 0.0
2017-Nov-15 13:00N 71°07' E 025°50'0 0.0
2017-Nov-15 12:30N 71°07' E 025°50'0 0.0
2017-Nov-15 11:57N 71°07' E 025°50'0 0.0
2017-Nov-15 11:30N 71°07' E 025°50'0 0.0
2017-Nov-15 11:00N 71°07' E 025°50'0 0.0
2017-Nov-15 10:30N 71°07' E 025°50'0 0.0
2017-Nov-15 10:00N 71°07' E 025°50'0 0.0
2017-Nov-15 09:27N 71°07' E 025°50'0 0.0
2017-Nov-15 08:57N 71°07' E 025°50'0 0.0
2017-Nov-15 08:30N 71°07' E 025°50'0 0.0
2017-Nov-15 08:00N 71°07' E 025°50'0 0.0
2017-Nov-15 07:27N 71°07' E 025°50'0 0.0
2017-Nov-15 07:00N 71°07' E 025°50'0 0.0
2017-Nov-15 06:30N 71°07' E 025°50'0 0.0
2017-Nov-15 05:57N 71°07' E 025°50'0 0.0
2017-Nov-15 05:30N 71°07' E 025°50'0 0.0
2017-Nov-15 05:00N 71°07' E 025°50'0 0.0
2017-Nov-15 04:30N 71°07' E 025°50'0 0.0
2017-Nov-15 04:00N 71°07' E 025°50'0 0.0
2017-Nov-15 03:27N 71°07' E 025°50'0 0.0
2017-Nov-15 03:00N 71°07' E 025°50'0 0.0
2017-Nov-15 02:24N 71°07' E 025°50'0 0.0
2017-Nov-15 02:00N 71°07' E 025°50'0 0.0
2017-Nov-15 01:30N 71°07' E 025°50'0 0.0
2017-Nov-15 01:00N 71°07' E 025°50'0 0.0
2017-Nov-15 00:30N 71°07' E 025°50'0 0.0
2017-Nov-14 23:57N 71°07' E 025°50'0 0.0
2017-Nov-14 23:30N 71°07' E 025°50'0 0.0
2017-Nov-14 22:57N 71°07' E 025°50'0 0.0
2017-Nov-14 22:30N 71°07' E 025°50'0 0.0
2017-Nov-14 22:00N 71°07' E 025°50'0 0.0
2017-Nov-14 21:30N 71°07' E 025°50'0 0.0
2017-Nov-14 21:00N 71°07' E 025°50'0 0.0
2017-Nov-14 20:30N 71°07' E 025°50'0 0.0
2017-Nov-14 19:57N 71°07' E 025°50'0 0.0
2017-Nov-14 19:30N 71°07' E 025°50'0 0.0
2017-Nov-14 19:00N 71°07' E 025°50'0 0.0
2017-Nov-14 18:27N 71°07' E 025°50'0 0.0
2017-Nov-14 18:00N 71°07' E 025°50'0 0.0
2017-Nov-14 17:30N 71°07' E 025°50'0 0.0
2017-Nov-14 17:00N 71°07' E 025°50'0 0.0
2017-Nov-14 16:30N 71°07' E 025°50'0 0.0
2017-Nov-14 16:00N 71°07' E 025°50'0 0.1
2017-Nov-14 15:26N 71°07' E 025°50'0 0.0
2017-Nov-14 14:56N 71°07' E 025°50'0 0.0
2017-Nov-14 14:29N 71°07' E 025°50'0 0.0
2017-Nov-14 13:59N 71°07' E 025°50'0 0.0
2017-Nov-14 13:26N 71°07' E 025°50'0 0.0
2017-Nov-14 13:00N 71°07' E 025°50'3 6.6
2017-Nov-14 12:30N 71°09' E 025°58'3 6.9
2017-Nov-14 12:00N 71°07' E 026°07'4 7.0
2017-Nov-14 11:30N 71°04' E 026°15'3 6.7
2017-Nov-14 11:00N 71°03' E 026°24'3 6.6
2017-Nov-14 10:30N 71°01' E 026°33'3 6.4
2017-Nov-14 10:00N 70°59' E 026°40'2 4.3
2017-Nov-14 09:29N 70°57' E 026°44'0 0.8
2017-Nov-14 09:00N 70°57' E 026°44'1 1.8
2017-Nov-14 08:29N 70°58' E 026°44'1 1.3
2017-Nov-14 08:00N 70°58' E 026°43'2 4.0
2017-Nov-14 07:30N 70°58' E 026°37'4 7.4
2017-Nov-14 06:59N 70°59' E 026°26'4 7.1
2017-Nov-14 06:29N 70°59' E 026°15'1 3.0
2017-Nov-14 06:00N 71°00' E 026°11'1 1.5
2017-Nov-14 05:30N 71°01' E 026°12'0 0.9
2017-Nov-14 04:59N 71°01' E 026°13'7 0.3
2017-Nov-13 02:00N 71°08' E 026°05'1 1.5
2017-Nov-13 01:30N 71°09' E 026°03'1 1.9
2017-Nov-13 01:00N 71°09' E 026°01'1 2.6
2017-Nov-13 00:30N 71°09' E 026°05'2 4.4
2017-Nov-12 23:59N 71°06' E 026°07'4 7.5
2017-Nov-12 23:30N 71°04' E 025°58'2 4.0
2017-Nov-12 22:58N 71°03' E 025°54'0 0.0
2017-Nov-12 22:22N 71°03' E 025°54'0 0.0
2017-Nov-12 21:58N 71°03' E 025°54'0 0.0
2017-Nov-12 21:28N 71°03' E 025°54'0 0.0
2017-Nov-12 20:58N 71°03' E 025°54'0 0.0
2017-Nov-12 20:28N 71°03' E 025°54'0 0.0
2017-Nov-12 19:58N 71°03' E 025°54'0 0.0
2017-Nov-12 19:28N 71°03' E 025°54'0 0.0
2017-Nov-12 18:58N 71°03' E 025°54'0 0.0
2017-Nov-12 18:25N 71°03' E 025°54'0 0.0
2017-Nov-12 17:58N 71°03' E 025°54'0 0.0
2017-Nov-12 17:28N 71°03' E 025°54'0 0.0
2017-Nov-12 16:58N 71°03' E 025°54'0 0.0
2017-Nov-12 16:28N 71°03' E 025°54'0 0.0
2017-Nov-12 15:58N 71°03' E 025°54'0 0.0
2017-Nov-12 15:28N 71°03' E 025°54'0 0.0
2017-Nov-12 14:58N 71°03' E 025°54'0 0.0
2017-Nov-12 14:28N 71°03' E 025°54'0 0.0
2017-Nov-12 13:58N 71°03' E 025°54'0 0.0
2017-Nov-12 13:28N 71°03' E 025°54'0 0.0
2017-Nov-12 12:58N 71°03' E 025°54'0 0.0
2017-Nov-12 12:28N 71°03' E 025°54'0 0.0
2017-Nov-12 11:58N 71°03' E 025°54'0 0.0
2017-Nov-12 11:28N 71°03' E 025°54'0 0.0
2017-Nov-12 10:58N 71°03' E 025°54'0 0.0
2017-Nov-12 10:28N 71°03' E 025°54'0 0.0
2017-Nov-12 09:58N 71°03' E 025°54'0 0.0
2017-Nov-12 09:28N 71°03' E 025°54'0 0.0
2017-Nov-12 08:58N 71°03' E 025°54'0 0.0
2017-Nov-12 08:28N 71°03' E 025°54'0 0.0
2017-Nov-12 07:58N 71°03' E 025°54'0 0.0
2017-Nov-12 07:28N 71°03' E 025°54'0 0.0
2017-Nov-12 06:58N 71°03' E 025°54'0 0.0
2017-Nov-12 06:28N 71°03' E 025°54'0 0.0
2017-Nov-12 05:58N 71°03' E 025°54'0 0.0
2017-Nov-12 05:28N 71°03' E 025°54'0 0.0
2017-Nov-12 04:58N 71°03' E 025°54'0 0.0
2017-Nov-12 04:25N 71°03' E 025°54'0 0.0
2017-Nov-12 03:55N 71°03' E 025°54'0 0.0
2017-Nov-12 03:28N 71°03' E 025°54'0 0.0
2017-Nov-12 02:58N 71°03' E 025°54'0 0.0
2017-Nov-12 02:28N 71°03' E 025°54'0 0.0
2017-Nov-12 01:58N 71°03' E 025°54'0 0.0
2017-Nov-12 01:28N 71°03' E 025°54'0 0.0
2017-Nov-12 00:58N 71°03' E 025°54'0 0.0
2017-Nov-12 00:28N 71°03' E 025°54'0 0.0
2017-Nov-11 23:58N 71°03' E 025°54'0 0.0
2017-Nov-11 23:28N 71°03' E 025°54'0 0.0
2017-Nov-11 22:58N 71°03' E 025°54'0 0.0
2017-Nov-11 22:28N 71°03' E 025°54'0 0.0
2017-Nov-11 21:58N 71°03' E 025°54'0 0.0
2017-Nov-11 21:28N 71°03' E 025°54'0 0.0
2017-Nov-11 20:58N 71°03' E 025°54'0 0.0
2017-Nov-11 20:28N 71°03' E 025°54'0 0.0
2017-Nov-11 19:58N 71°03' E 025°54'0 0.0
2017-Nov-11 19:28N 71°03' E 025°54'0 0.0
2017-Nov-11 18:58N 71°03' E 025°54'0 0.0
2017-Nov-11 18:28N 71°03' E 025°54'0 0.0
2017-Nov-11 17:58N 71°03' E 025°54'0 0.0
2017-Nov-11 17:28N 71°03' E 025°54'0 0.0
2017-Nov-11 16:58N 71°03' E 025°54'0 0.0
2017-Nov-11 16:28N 71°03' E 025°54'0 0.0
2017-Nov-11 15:55N 71°03' E 025°54'0 0.0
2017-Nov-11 15:28N 71°03' E 025°54'0 0.0
2017-Nov-11 14:58N 71°03' E 025°54'0 0.0
2017-Nov-11 14:28N 71°03' E 025°54'0 0.0
2017-Nov-11 13:55N 71°03' E 025°54'0 0.0
2017-Nov-11 13:28N 71°03' E 025°54'0 0.0
2017-Nov-11 12:58N 71°03' E 025°54'0 0.0
2017-Nov-11 12:28N 71°03' E 025°54'0 0.0
2017-Nov-11 11:55N 71°03' E 025°54'0 0.0
2017-Nov-11 11:28N 71°03' E 025°54'0 0.0
2017-Nov-11 10:58N 71°03' E 025°54'0 0.0
2017-Nov-11 10:28N 71°03' E 025°54'0 0.0
2017-Nov-11 09:58N 71°03' E 025°54'0 0.1
2017-Nov-11 09:29N 71°03' E 025°54'0 0.0
2017-Nov-11 09:00N 71°03' E 025°54'3 6.6
2017-Nov-11 08:30N 71°05' E 026°00'4 5.8
2017-Nov-11 07:44N 71°09' E 026°01'1 4.0
2017-Nov-11 07:30N 71°09' E 026°04'0 0.6
2017-Nov-11 07:00N 71°09' E 026°03'0 0.7
2017-Nov-11 06:30N 71°09' E 026°02'1 1.2
2017-Nov-11 06:00N 71°10' E 026°00'4 7.1
2017-Nov-11 05:30N 71°11' E 025°50'2 4.9
2017-Nov-11 05:00N 71°10' E 025°42'2 3.1
2017-Nov-11 04:30N 71°11' E 025°46'1 2.7
2017-Nov-11 04:01N 71°11' E 025°50'1 1.4
2017-Nov-11 03:30N 71°11' E 025°48'1 1.8
2017-Nov-11 03:00N 71°11' E 025°45'1 1.2
2017-Nov-11 02:30N 71°11' E 025°44'2 3.8
2017-Nov-11 02:01N 71°11' E 025°49'0 0.4
2017-Nov-11 01:29N 71°11' E 025°50'1 1.2
2017-Nov-11 01:00N 71°11' E 025°48'2 1.3
2017-Nov-10 23:28N 71°09' E 025°52'3 5.1
2017-Nov-10 22:59N 71°07' E 025°50'0 0.0
2017-Nov-10 22:29N 71°07' E 025°50'0 0.0
2017-Nov-10 21:59N 71°07' E 025°50'0 0.0
2017-Nov-10 21:29N 71°07' E 025°50'0 0.0
2017-Nov-10 20:59N 71°07' E 025°50'0 0.0
2017-Nov-10 20:29N 71°07' E 025°50'0 0.0
2017-Nov-10 19:59N 71°07' E 025°50'0 0.0
2017-Nov-10 19:29N 71°07' E 025°50'0 0.0
2017-Nov-10 18:59N 71°07' E 025°50'0 0.0
2017-Nov-10 18:26N 71°07' E 025°50'0 0.0
2017-Nov-10 17:56N 71°07' E 025°50'0 0.0
2017-Nov-10 17:29N 71°07' E 025°50'0 0.0
2017-Nov-10 17:00N 71°07' E 025°50'0 0.0
2017-Nov-10 16:30N 71°07' E 025°50'0 0.0
2017-Nov-10 16:00N 71°07' E 025°50'0 0.0
2017-Nov-10 15:30N 71°07' E 025°50'0 0.0
2017-Nov-10 15:00N 71°07' E 025°50'0 0.0
2017-Nov-10 14:30N 71°07' E 025°50'0 0.0
2017-Nov-10 14:00N 71°07' E 025°50'0 0.0
2017-Nov-10 13:30N 71°07' E 025°50'0 0.0
2017-Nov-10 13:00N 71°07' E 025°50'0 0.0
2017-Nov-10 12:30N 71°07' E 025°50'0 0.0
2017-Nov-10 12:00N 71°07' E 025°50'0 0.0
2017-Nov-10 11:30N 71°07' E 025°50'0 0.0
2017-Nov-10 11:00N 71°07' E 025°50'0 0.0
2017-Nov-10 10:30N 71°07' E 025°50'0 0.0
2017-Nov-10 10:00N 71°07' E 025°50'0 0.0
2017-Nov-10 09:30N 71°07' E 025°50'0 0.0
2017-Nov-10 09:00N 71°07' E 025°50'0 0.0
2017-Nov-10 08:30N 71°07' E 025°50'0 0.0
2017-Nov-10 08:00N 71°07' E 025°50'0 0.0
2017-Nov-10 07:27N 71°07' E 025°50'0 0.0
2017-Nov-10 06:57N 71°07' E 025°50'0 0.0
2017-Nov-10 06:30N 71°07' E 025°50'0 0.0
2017-Nov-10 06:00N 71°07' E 025°50'0 0.0
2017-Nov-10 05:30N 71°07' E 025°50'0 0.0
2017-Nov-10 05:00N 71°07' E 025°50'0 0.0
2017-Nov-10 04:30N 71°07' E 025°50'0 0.0
2017-Nov-10 04:00N 71°07' E 025°50'0 0.0
2017-Nov-10 03:30N 71°07' E 025°50'0 0.0
2017-Nov-10 03:00N 71°07' E 025°50'0 0.0
2017-Nov-10 02:30N 71°07' E 025°50'0 0.0
2017-Nov-10 02:00N 71°07' E 025°50'0 0.0
2017-Nov-10 01:30N 71°07' E 025°50'0 0.0
2017-Nov-10 01:00N 71°07' E 025°50'0 0.0
2017-Nov-10 00:18N 71°07' E 025°50'0 0.0
2017-Nov-09 23:51N 71°07' E 025°50'0 0.0
2017-Nov-09 23:27N 71°07' E 025°50'0 0.0
2017-Nov-09 22:57N 71°07' E 025°50'0 0.0
2017-Nov-09 22:30N 71°07' E 025°50'0 0.0
2017-Nov-09 21:51N 71°07' E 025°50'0 0.0
2017-Nov-09 21:30N 71°07' E 025°50'0 0.0
2017-Nov-09 20:57N 71°07' E 025°50'0 0.0
2017-Nov-09 20:30N 71°07' E 025°50'0 0.0
2017-Nov-09 20:00N 71°07' E 025°50'0 0.0
2017-Nov-09 19:30N 71°07' E 025°50'0 0.0
2017-Nov-09 19:00N 71°07' E 025°50'0 0.0
2017-Nov-09 18:30N 71°07' E 025°50'0 0.0
2017-Nov-09 18:00N 71°07' E 025°50'0 0.0
2017-Nov-09 17:30N 71°07' E 025°50'0 0.0
2017-Nov-09 17:00N 71°07' E 025°50'0 0.0
2017-Nov-09 16:30N 71°07' E 025°50'0 0.0
2017-Nov-09 16:00N 71°07' E 025°50'0 0.0
2017-Nov-09 15:30N 71°07' E 025°50'0 0.0
2017-Nov-09 14:57N 71°07' E 025°50'0 0.0
2017-Nov-09 14:27N 71°07' E 025°50'0 0.0
2017-Nov-09 13:54N 71°07' E 025°50'0 0.0
2017-Nov-09 13:30N 71°07' E 025°50'0 0.9
2017-Nov-09 12:59N 71°07' E 025°51'0 0.9
2017-Nov-09 12:28N 71°07' E 025°50'0 0.0
2017-Nov-09 11:58N 71°07' E 025°50'0 0.0
2017-Nov-09 11:25N 71°07' E 025°50'0 0.0
2017-Nov-09 10:58N 71°07' E 025°50'0 0.0
2017-Nov-09 10:25N 71°07' E 025°50'0 0.0
2017-Nov-09 09:55N 71°07' E 025°50'0 0.0
2017-Nov-09 09:25N 71°07' E 025°50'0 0.0
2017-Nov-09 08:58N 71°07' E 025°50'0 0.0
2017-Nov-09 08:28N 71°07' E 025°50'0 0.0
2017-Nov-09 07:58N 71°07' E 025°50'0 0.0
2017-Nov-09 07:28N 71°07' E 025°50'0 0.0
2017-Nov-09 06:58N 71°07' E 025°50'0 0.0
2017-Nov-09 06:25N 71°07' E 025°50'0 0.0
2017-Nov-09 05:58N 71°07' E 025°50'0 0.0
2017-Nov-09 05:28N 71°07' E 025°50'0 0.0
2017-Nov-09 04:55N 71°07' E 025°50'0 0.0
2017-Nov-09 04:25N 71°07' E 025°50'0 0.0
2017-Nov-09 03:55N 71°07' E 025°50'0 0.0
2017-Nov-09 03:25N 71°07' E 025°50'0 0.0
2017-Nov-09 02:55N 71°07' E 025°50'0 0.0
2017-Nov-09 02:22N 71°07' E 025°50'0 0.0
2017-Nov-09 01:58N 71°07' E 025°50'0 0.0
2017-Nov-09 01:28N 71°07' E 025°50'0 0.0
2017-Nov-09 00:55N 71°07' E 025°50'0 0.0
2017-Nov-09 00:28N 71°07' E 025°50'0 0.0
2017-Nov-08 23:58N 71°07' E 025°50'0 0.0
2017-Nov-08 23:28N 71°07' E 025°50'0 0.0
2017-Nov-08 22:55N 71°07' E 025°50'0 0.0
2017-Nov-08 22:28N 71°07' E 025°50'0 0.0
2017-Nov-08 21:58N 71°07' E 025°50'2 4.5
2017-Nov-08 21:30N 71°09' E 025°52'4 7.3
2017-Nov-08 21:00N 71°11' E 025°44'4 8.1
2017-Nov-08 20:30N 71°11' E 025°31'4 7.1
2017-Nov-08 19:59N 71°07' E 025°25'3 6.1
2017-Nov-08 19:30N 71°06' E 025°16'4 7.4
2017-Nov-08 19:00N 71°05' E 025°06'4 7.5
2017-Nov-08 18:30N 71°03' E 024°56'4 8.0
2017-Nov-08 18:00N 71°00' E 024°47'2 4.8
2017-Nov-08 17:30N 70°60' E 024°40'0 0.0
2017-Nov-08 17:00N 70°60' E 024°40'0 0.0
2017-Nov-08 16:30N 70°60' E 024°40'0 0.0
2017-Nov-08 16:00N 70°60' E 024°40'1 1.4
2017-Nov-08 15:30N 70°60' E 024°42'0 0.2
2017-Nov-08 15:00N 70°60' E 024°42'0 0.2
2017-Nov-08 14:28N 70°60' E 024°42'1 1.9
2017-Nov-08 14:00N 70°60' E 024°39'3 6.0
2017-Nov-08 13:30N 70°58' E 024°33'0 0.3
2017-Nov-08 13:00N 70°57' E 024°33'0 0.5
2017-Nov-08 12:30N 70°58' E 024°32'0 0.1
2017-Nov-08 12:00N 70°58' E 024°32'0 0.9
2017-Nov-08 11:29N 70°58' E 024°34'1 1.0
2017-Nov-08 11:00N 70°58' E 024°32'1 1.8
2017-Nov-08 10:30N 70°57' E 024°35'0 0.7
2017-Nov-08 10:00N 70°57' E 024°34'0 0.7
2017-Nov-08 09:30N 70°57' E 024°33'0 0.3
2017-Nov-08 09:00N 70°57' E 024°33'1 1.2
2017-Nov-08 08:30N 70°58' E 024°31'1 1.5
2017-Nov-08 08:00N 70°57' E 024°34'1 2.6
2017-Nov-08 07:31N 70°59' E 024°32'3 4.9
2017-Nov-08 06:59N 70°60' E 024°40'0 0.0
2017-Nov-08 06:29N 70°60' E 024°40'0 0.0
2017-Nov-08 05:59N 70°60' E 024°40'0 0.0
2017-Nov-08 05:29N 70°60' E 024°40'0 0.0
2017-Nov-08 04:59N 70°60' E 024°40'0 0.0
2017-Nov-08 04:29N 70°60' E 024°40'0 0.0
2017-Nov-08 03:59N 70°60' E 024°40'0 0.0
2017-Nov-08 03:29N 70°60' E 024°40'0 0.0
2017-Nov-08 02:59N 70°60' E 024°40'0 0.0
2017-Nov-08 02:29N 70°60' E 024°40'0 0.0
2017-Nov-08 01:59N 70°60' E 024°40'0 0.0
2017-Nov-08 01:29N 70°60' E 024°40'0 0.0
2017-Nov-08 00:59N 70°60' E 024°40'0 0.0
2017-Nov-08 00:29N 70°60' E 024°40'0 0.0
2017-Nov-07 23:59N 70°60' E 024°40'0 0.0
2017-Nov-07 23:29N 70°60' E 024°40'0 0.0
2017-Nov-07 22:59N 70°60' E 024°40'0 0.0
2017-Nov-07 22:29N 70°60' E 024°40'0 0.0
2017-Nov-07 21:59N 70°60' E 024°40'0 0.0
2017-Nov-07 21:29N 70°60' E 024°40'0 0.0
2017-Nov-07 20:59N 70°60' E 024°40'0 0.0
2017-Nov-07 20:29N 70°60' E 024°40'0 0.0
2017-Nov-07 19:59N 70°60' E 024°40'0 0.0
2017-Nov-07 19:29N 70°60' E 024°40'0 0.0
2017-Nov-07 18:59N 70°60' E 024°40'0 0.0
2017-Nov-07 18:29N 70°60' E 024°40'0 0.0
2017-Nov-07 17:59N 70°60' E 024°40'0 0.0
2017-Nov-07 17:29N 70°60' E 024°40'0 0.0
2017-Nov-07 16:59N 70°60' E 024°40'2 4.6
2017-Nov-07 16:30N 70°59' E 024°34'1 2.7
2017-Nov-07 16:00N 70°58' E 024°33'0 0.2
2017-Nov-07 15:30N 70°58' E 024°33'0 0.3
2017-Nov-07 15:00N 70°58' E 024°32'0 0.2
2017-Nov-07 14:29N 70°58' E 024°32'0 0.5
2017-Nov-07 13:59N 70°58' E 024°33'0 0.4
2017-Nov-07 13:30N 70°57' E 024°33'0 0.5
2017-Nov-07 13:00N 70°58' E 024°34'0 0.4
2017-Nov-07 12:29N 70°57' E 024°34'1 1.3
2017-Nov-07 12:00N 70°57' E 024°32'0 0.9
2017-Nov-07 11:30N 70°57' E 024°31'1 1.4
2017-Nov-07 10:59N 70°58' E 024°33'0 0.4
2017-Nov-07 10:29N 70°57' E 024°33'1 1.3
2017-Nov-07 09:59N 70°58' E 024°35'1 2.9
2017-Nov-07 09:30N 70°59' E 024°32'3 5.2
2017-Nov-07 09:00N 70°60' E 024°40'0 0.0
2017-Nov-07 08:28N 70°60' E 024°40'0 0.0
2017-Nov-07 07:58N 70°60' E 024°40'0 0.0
2017-Nov-07 07:28N 70°60' E 024°40'0 0.0
2017-Nov-07 06:58N 70°60' E 024°40'0 0.0
2017-Nov-07 06:28N 70°60' E 024°40'0 0.0
2017-Nov-07 05:58N 70°60' E 024°40'0 0.0
2017-Nov-07 05:28N 70°60' E 024°40'0 0.0
2017-Nov-07 04:58N 70°60' E 024°40'0 0.0
2017-Nov-07 04:28N 70°60' E 024°40'0 0.0
2017-Nov-07 03:58N 70°60' E 024°40'0 0.0
2017-Nov-07 03:28N 70°60' E 024°40'0 0.0
2017-Nov-07 02:58N 70°60' E 024°40'0 0.0
2017-Nov-07 02:28N 70°60' E 024°40'0 0.0
2017-Nov-07 01:58N 70°60' E 024°40'0 0.0
2017-Nov-07 01:28N 70°60' E 024°40'0 0.0
2017-Nov-07 00:58N 70°60' E 024°40'0 0.0
2017-Nov-07 00:28N 70°60' E 024°40'0 0.0
2017-Nov-06 23:58N 70°60' E 024°40'0 0.0
2017-Nov-06 23:28N 70°60' E 024°40'0 0.0
2017-Nov-06 22:58N 70°60' E 024°40'0 0.0
2017-Nov-06 22:28N 70°60' E 024°40'0 0.0
2017-Nov-06 21:58N 70°60' E 024°40'0 0.0
2017-Nov-06 21:28N 70°60' E 024°40'0 0.0
2017-Nov-06 20:58N 70°60' E 024°40'0 0.0
2017-Nov-06 20:28N 70°60' E 024°40'  
Track history (hours):
 
Tides and Currents Weather Stations Pressure Air Temp Water Temp Dewpoint Dewpoint Depression Visibility Wind Speed Wind Dir Waves Ship Positions

Thor-arild

Last reported at 2017-Nov-16 09:06 UTC. Time now 2017-Nov-23 01:46 UTC.
Position N 71°07' E 025°50'.

Length 15 m.

Type: Fishing. MMSI: 257922600.

Date/timePositionNaut miles runAvg speedWind from/ knotsBaromVisibWave heightAir tempDewpointWater temp
2017-Nov-16 09:06N 71°07' E 025°50'0 1.1
2017-Nov-16 08:58N 71°07' E 025°50'0 0.0
2017-Nov-16 08:28N 71°07' E 025°50'0 0.0
2017-Nov-16 07:58N 71°07' E 025°50'0 0.0
2017-Nov-16 07:25N 71°07' E 025°50'0 0.0
2017-Nov-16 06:58N 71°07' E 025°50'0 0.0
2017-Nov-16 06:28N 71°07' E 025°50'0 0.0
2017-Nov-16 05:55N 71°07' E 025°50'0 0.0
2017-Nov-16 05:28N 71°07' E 025°50'0 0.0
2017-Nov-16 04:55N 71°07' E 025°50'0 0.0
2017-Nov-16 04:28N 71°07' E 025°50'0 0.0
2017-Nov-16 03:58N 71°07' E 025°50'0 0.5
2017-Nov-16 03:30N 71°07' E 025°51'3 5.9
2017-Nov-16 03:00N 71°10' E 025°51'2 4.9
2017-Nov-16 02:30N 71°11' E 025°44'3 5.5
2017-Nov-16 02:00N 71°11' E 025°52'3 6.7
2017-Nov-16 01:30N 71°09' E 026°02'0 0.4
2017-Nov-16 01:00N 71°09' E 026°02'1 1.3
2017-Nov-16 00:30N 71°09' E 026°04'1 1.4
2017-Nov-16 00:00N 71°09' E 026°03'3 5.2
2017-Nov-15 23:30N 71°09' E 025°55'2 4.4
2017-Nov-15 23:00N 71°07' E 025°50'0 0.1
2017-Nov-15 22:30N 71°07' E 025°50'0 0.0
2017-Nov-15 21:57N 71°07' E 025°50'0 0.0
2017-Nov-15 21:24N 71°07' E 025°50'0 0.0
2017-Nov-15 21:00N 71°07' E 025°50'0 0.0
2017-Nov-15 20:27N 71°07' E 025°50'0 0.0
2017-Nov-15 20:00N 71°07' E 025°50'0 0.0
2017-Nov-15 19:27N 71°07' E 025°50'0 0.0
2017-Nov-15 19:00N 71°07' E 025°50'0 0.0
2017-Nov-15 18:30N 71°07' E 025°50'0 0.0
2017-Nov-15 18:00N 71°07' E 025°50'0 0.0
2017-Nov-15 17:30N 71°07' E 025°50'0 0.0
2017-Nov-15 17:00N 71°07' E 025°50'0 0.0
2017-Nov-15 16:30N 71°07' E 025°50'0 0.0
2017-Nov-15 16:00N 71°07' E 025°50'0 0.0
2017-Nov-15 15:30N 71°07' E 025°50'0 0.0
2017-Nov-15 14:57N 71°07' E 025°50'0 0.0
2017-Nov-15 14:30N 71°07' E 025°50'0 0.0
2017-Nov-15 14:00N 71°07' E 025°50'0 0.0
2017-Nov-15 13:30N 71°07' E 025°50'0 0.0
2017-Nov-15 13:00N 71°07' E 025°50'0 0.0
2017-Nov-15 12:30N 71°07' E 025°50'0 0.0
2017-Nov-15 11:57N 71°07' E 025°50'0 0.0
2017-Nov-15 11:30N 71°07' E 025°50'0 0.0
2017-Nov-15 11:00N 71°07' E 025°50'0 0.0
2017-Nov-15 10:30N 71°07' E 025°50'0 0.0
2017-Nov-15 10:00N 71°07' E 025°50'0 0.0
2017-Nov-15 09:27N 71°07' E 025°50'0 0.0
2017-Nov-15 08:57N 71°07' E 025°50'0 0.0
2017-Nov-15 08:30N 71°07' E 025°50'0 0.0
2017-Nov-15 08:00N 71°07' E 025°50'0 0.0
2017-Nov-15 07:27N 71°07' E 025°50'0 0.0
2017-Nov-15 07:00N 71°07' E 025°50'0 0.0
2017-Nov-15 06:30N 71°07' E 025°50'0 0.0
2017-Nov-15 05:57N 71°07' E 025°50'0 0.0
2017-Nov-15 05:30N 71°07' E 025°50'0 0.0
2017-Nov-15 05:00N 71°07' E 025°50'0 0.0
2017-Nov-15 04:30N 71°07' E 025°50'0 0.0
2017-Nov-15 04:00N 71°07' E 025°50'0 0.0
2017-Nov-15 03:27N 71°07' E 025°50'0 0.0
2017-Nov-15 03:00N 71°07' E 025°50'0 0.0
2017-Nov-15 02:24N 71°07' E 025°50'0 0.0
2017-Nov-15 02:00N 71°07' E 025°50'0 0.0
2017-Nov-15 01:30N 71°07' E 025°50'0 0.0
2017-Nov-15 01:00N 71°07' E 025°50'0 0.0
2017-Nov-15 00:30N 71°07' E 025°50'0 0.0
2017-Nov-14 23:57N 71°07' E 025°50'0 0.0
2017-Nov-14 23:30N 71°07' E 025°50'0 0.0
2017-Nov-14 22:57N 71°07' E 025°50'0 0.0
2017-Nov-14 22:30N 71°07' E 025°50'0 0.0
2017-Nov-14 22:00N 71°07' E 025°50'0 0.0
2017-Nov-14 21:30N 71°07' E 025°50'0 0.0
2017-Nov-14 21:00N 71°07' E 025°50'0 0.0
2017-Nov-14 20:30N 71°07' E 025°50'0 0.0
2017-Nov-14 19:57N 71°07' E 025°50'0 0.0
2017-Nov-14 19:30N 71°07' E 025°50'0 0.0
2017-Nov-14 19:00N 71°07' E 025°50'0 0.0
2017-Nov-14 18:27N 71°07' E 025°50'0 0.0
2017-Nov-14 18:00N 71°07' E 025°50'0 0.0
2017-Nov-14 17:30N 71°07' E 025°50'0 0.0
2017-Nov-14 17:00N 71°07' E 025°50'0 0.0
2017-Nov-14 16:30N 71°07' E 025°50'0 0.0
2017-Nov-14 16:00N 71°07' E 025°50'0 0.1
2017-Nov-14 15:26N 71°07' E 025°50'0 0.0
2017-Nov-14 14:56N 71°07' E 025°50'0 0.0
2017-Nov-14 14:29N 71°07' E 025°50'0 0.0
2017-Nov-14 13:59N 71°07' E 025°50'0 0.0
2017-Nov-14 13:26N 71°07' E 025°50'0 0.0
2017-Nov-14 13:00N 71°07' E 025°50'3 6.6
2017-Nov-14 12:30N 71°09' E 025°58'3 6.9
2017-Nov-14 12:00N 71°07' E 026°07'4 7.0
2017-Nov-14 11:30N 71°04' E 026°15'3 6.7
2017-Nov-14 11:00N 71°03' E 026°24'3 6.6
2017-Nov-14 10:30N 71°01' E 026°33'3 6.4
2017-Nov-14 10:00N 70°59' E 026°40'2 4.3
2017-Nov-14 09:29N 70°57' E 026°44'0 0.8
2017-Nov-14 09:00N 70°57' E 026°44'1 1.8
2017-Nov-14 08:29N 70°58' E 026°44'1 1.3
2017-Nov-14 08:00N 70°58' E 026°43'2 4.0
2017-Nov-14 07:30N 70°58' E 026°37'4 7.4
2017-Nov-14 06:59N 70°59' E 026°26'4 7.1
2017-Nov-14 06:29N 70°59' E 026°15'1 3.0
2017-Nov-14 06:00N 71°00' E 026°11'1 1.5
2017-Nov-14 05:30N 71°01' E 026°12'0 0.9
2017-Nov-14 04:59N 71°01' E 026°13'7 0.3
2017-Nov-13 02:00N 71°08' E 026°05'1 1.5
2017-Nov-13 01:30N 71°09' E 026°03'1 1.9
2017-Nov-13 01:00N 71°09' E 026°01'1 2.6
2017-Nov-13 00:30N 71°09' E 026°05'2 4.4
2017-Nov-12 23:59N 71°06' E 026°07'4 7.5
2017-Nov-12 23:30N 71°04' E 025°58'2 4.0
2017-Nov-12 22:58N 71°03' E 025°54'0 0.0
2017-Nov-12 22:22N 71°03' E 025°54'0 0.0
2017-Nov-12 21:58N 71°03' E 025°54'0 0.0
2017-Nov-12 21:28N 71°03' E 025°54'0 0.0
2017-Nov-12 20:58N 71°03' E 025°54'0 0.0
2017-Nov-12 20:28N 71°03' E 025°54'0 0.0
2017-Nov-12 19:58N 71°03' E 025°54'0 0.0
2017-Nov-12 19:28N 71°03' E 025°54'0 0.0
2017-Nov-12 18:58N 71°03' E 025°54'0 0.0
2017-Nov-12 18:25N 71°03' E 025°54'0 0.0
2017-Nov-12 17:58N 71°03' E 025°54'0 0.0
2017-Nov-12 17:28N 71°03' E 025°54'0 0.0
2017-Nov-12 16:58N 71°03' E 025°54'0 0.0
2017-Nov-12 16:28N 71°03' E 025°54'0 0.0
2017-Nov-12 15:58N 71°03' E 025°54'0 0.0
2017-Nov-12 15:28N 71°03' E 025°54'0 0.0
2017-Nov-12 14:58N 71°03' E 025°54'0 0.0
2017-Nov-12 14:28N 71°03' E 025°54'0 0.0
2017-Nov-12 13:58N 71°03' E 025°54'0 0.0
2017-Nov-12 13:28N 71°03' E 025°54'0 0.0
2017-Nov-12 12:58N 71°03' E 025°54'0 0.0
2017-Nov-12 12:28N 71°03' E 025°54'0 0.0
2017-Nov-12 11:58N 71°03' E 025°54'0 0.0
2017-Nov-12 11:28N 71°03' E 025°54'0 0.0
2017-Nov-12 10:58N 71°03' E 025°54'0 0.0
2017-Nov-12 10:28N 71°03' E 025°54'0 0.0
2017-Nov-12 09:58N 71°03' E 025°54'0 0.0
2017-Nov-12 09:28N 71°03' E 025°54'0 0.0
2017-Nov-12 08:58N 71°03' E 025°54'0 0.0
2017-Nov-12 08:28N 71°03' E 025°54'0 0.0
2017-Nov-12 07:58N 71°03' E 025°54'0 0.0
2017-Nov-12 07:28N 71°03' E 025°54'0 0.0
2017-Nov-12 06:58N 71°03' E 025°54'0 0.0
2017-Nov-12 06:28N 71°03' E 025°54'0 0.0
2017-Nov-12 05:58N 71°03' E 025°54'0 0.0
2017-Nov-12 05:28N 71°03' E 025°54'0 0.0
2017-Nov-12 04:58N 71°03' E 025°54'0 0.0
2017-Nov-12 04:25N 71°03' E 025°54'0 0.0
2017-Nov-12 03:55N 71°03' E 025°54'0 0.0
2017-Nov-12 03:28N 71°03' E 025°54'0 0.0
2017-Nov-12 02:58N 71°03' E 025°54'0 0.0
2017-Nov-12 02:28N 71°03' E 025°54'0 0.0
2017-Nov-12 01:58N 71°03' E 025°54'0 0.0
2017-Nov-12 01:28N 71°03' E 025°54'0 0.0
2017-Nov-12 00:58N 71°03' E 025°54'0 0.0
2017-Nov-12 00:28N 71°03' E 025°54'0 0.0
2017-Nov-11 23:58N 71°03' E 025°54'0 0.0
2017-Nov-11 23:28N 71°03' E 025°54'0 0.0
2017-Nov-11 22:58N 71°03' E 025°54'0 0.0
2017-Nov-11 22:28N 71°03' E 025°54'0 0.0
2017-Nov-11 21:58N 71°03' E 025°54'0 0.0
2017-Nov-11 21:28N 71°03' E 025°54'0 0.0
2017-Nov-11 20:58N 71°03' E 025°54'0 0.0
2017-Nov-11 20:28N 71°03' E 025°54'0 0.0
2017-Nov-11 19:58N 71°03' E 025°54'0 0.0
2017-Nov-11 19:28N 71°03' E 025°54'0 0.0
2017-Nov-11 18:58N 71°03' E 025°54'0 0.0
2017-Nov-11 18:28N 71°03' E 025°54'0 0.0
2017-Nov-11 17:58N 71°03' E 025°54'0 0.0
2017-Nov-11 17:28N 71°03' E 025°54'0 0.0
2017-Nov-11 16:58N 71°03' E 025°54'0 0.0
2017-Nov-11 16:28N 71°03' E 025°54'0 0.0
2017-Nov-11 15:55N 71°03' E 025°54'0 0.0
2017-Nov-11 15:28N 71°03' E 025°54'0 0.0
2017-Nov-11 14:58N 71°03' E 025°54'0 0.0
2017-Nov-11 14:28N 71°03' E 025°54'0 0.0
2017-Nov-11 13:55N 71°03' E 025°54'0 0.0
2017-Nov-11 13:28N 71°03' E 025°54'0 0.0
2017-Nov-11 12:58N 71°03' E 025°54'0 0.0
2017-Nov-11 12:28N 71°03' E 025°54'0 0.0
2017-Nov-11 11:55N 71°03' E 025°54'0 0.0
2017-Nov-11 11:28N 71°03' E 025°54'0 0.0
2017-Nov-11 10:58N 71°03' E 025°54'0 0.0
2017-Nov-11 10:28N 71°03' E 025°54'0 0.0
2017-Nov-11 09:58N 71°03' E 025°54'0 0.1
2017-Nov-11 09:29N 71°03' E 025°54'0 0.0
2017-Nov-11 09:00N 71°03' E 025°54'3 6.6
2017-Nov-11 08:30N 71°05' E 026°00'4 5.8
2017-Nov-11 07:44N 71°09' E 026°01'1 4.0
2017-Nov-11 07:30N 71°09' E 026°04'0 0.6
2017-Nov-11 07:00N 71°09' E 026°03'0 0.7
2017-Nov-11 06:30N 71°09' E 026°02'1 1.2
2017-Nov-11 06:00N 71°10' E 026°00'4 7.1
2017-Nov-11 05:30N 71°11' E 025°50'2 4.9
2017-Nov-11 05:00N 71°10' E 025°42'2 3.1
2017-Nov-11 04:30N 71°11' E 025°46'1 2.7
2017-Nov-11 04:01N 71°11' E 025°50'1 1.4
2017-Nov-11 03:30N 71°11' E 025°48'1 1.8
2017-Nov-11 03:00N 71°11' E 025°45'1 1.2
2017-Nov-11 02:30N 71°11' E 025°44'2 3.8
2017-Nov-11 02:01N 71°11' E 025°49'0 0.4
2017-Nov-11 01:29N 71°11' E 025°50'1 1.2
2017-Nov-11 01:00N 71°11' E 025°48'2 1.3
2017-Nov-10 23:28N 71°09' E 025°52'3 5.1
2017-Nov-10 22:59N 71°07' E 025°50'0 0.0
2017-Nov-10 22:29N 71°07' E 025°50'0 0.0
2017-Nov-10 21:59N 71°07' E 025°50'0 0.0
2017-Nov-10 21:29N 71°07' E 025°50'0 0.0
2017-Nov-10 20:59N 71°07' E 025°50'0 0.0
2017-Nov-10 20:29N 71°07' E 025°50'0 0.0
2017-Nov-10 19:59N 71°07' E 025°50'0 0.0
2017-Nov-10 19:29N 71°07' E 025°50'0 0.0
2017-Nov-10 18:59N 71°07' E 025°50'0 0.0
2017-Nov-10 18:26N 71°07' E 025°50'0 0.0
2017-Nov-10 17:56N 71°07' E 025°50'0 0.0
2017-Nov-10 17:29N 71°07' E 025°50'0 0.0
2017-Nov-10 17:00N 71°07' E 025°50'0 0.0
2017-Nov-10 16:30N 71°07' E 025°50'0 0.0
2017-Nov-10 16:00N 71°07' E 025°50'0 0.0
2017-Nov-10 15:30N 71°07' E 025°50'0 0.0
2017-Nov-10 15:00N 71°07' E 025°50'0 0.0
2017-Nov-10 14:30N 71°07' E 025°50'0 0.0
2017-Nov-10 14:00N 71°07' E 025°50'0 0.0
2017-Nov-10 13:30N 71°07' E 025°50'0 0.0
2017-Nov-10 13:00N 71°07' E 025°50'0 0.0
2017-Nov-10 12:30N 71°07' E 025°50'0 0.0
2017-Nov-10 12:00N 71°07' E 025°50'0 0.0
2017-Nov-10 11:30N 71°07' E 025°50'0 0.0
2017-Nov-10 11:00N 71°07' E 025°50'0 0.0
2017-Nov-10 10:30N 71°07' E 025°50'0 0.0
2017-Nov-10 10:00N 71°07' E 025°50'0 0.0
2017-Nov-10 09:30N 71°07' E 025°50'0 0.0
2017-Nov-10 09:00N 71°07' E 025°50'0 0.0
2017-Nov-10 08:30N 71°07' E 025°50'0 0.0
2017-Nov-10 08:00N 71°07' E 025°50'0 0.0
2017-Nov-10 07:27N 71°07' E 025°50'0 0.0
2017-Nov-10 06:57N 71°07' E 025°50'0 0.0
2017-Nov-10 06:30N 71°07' E 025°50'0 0.0
2017-Nov-10 06:00N 71°07' E 025°50'0 0.0
2017-Nov-10 05:30N 71°07' E 025°50'0 0.0
2017-Nov-10 05:00N 71°07' E 025°50'0 0.0
2017-Nov-10 04:30N 71°07' E 025°50'0 0.0
2017-Nov-10 04:00N 71°07' E 025°50'0 0.0
2017-Nov-10 03:30N 71°07' E 025°50'0 0.0
2017-Nov-10 03:00N 71°07' E 025°50'0 0.0
2017-Nov-10 02:30N 71°07' E 025°50'0 0.0
2017-Nov-10 02:00N 71°07' E 025°50'0 0.0
2017-Nov-10 01:30N 71°07' E 025°50'0 0.0
2017-Nov-10 01:00N 71°07' E 025°50'0 0.0
2017-Nov-10 00:18N 71°07' E 025°50'0 0.0
2017-Nov-09 23:51N 71°07' E 025°50'0 0.0
2017-Nov-09 23:27N 71°07' E 025°50'0 0.0
2017-Nov-09 22:57N 71°07' E 025°50'0 0.0
2017-Nov-09 22:30N 71°07' E 025°50'0 0.0
2017-Nov-09 21:51N 71°07' E 025°50'0 0.0
2017-Nov-09 21:30N 71°07' E 025°50'0 0.0
2017-Nov-09 20:57N 71°07' E 025°50'0 0.0
2017-Nov-09 20:30N 71°07' E 025°50'0 0.0
2017-Nov-09 20:00N 71°07' E 025°50'0 0.0
2017-Nov-09 19:30N 71°07' E 025°50'0 0.0
2017-Nov-09 19:00N 71°07' E 025°50'0 0.0
2017-Nov-09 18:30N 71°07' E 025°50'0 0.0
2017-Nov-09 18:00N 71°07' E 025°50'0 0.0
2017-Nov-09 17:30N 71°07' E 025°50'0 0.0
2017-Nov-09 17:00N 71°07' E 025°50'0 0.0
2017-Nov-09 16:30N 71°07' E 025°50'0 0.0
2017-Nov-09 16:00N 71°07' E 025°50'0 0.0
2017-Nov-09 15:30N 71°07' E 025°50'0 0.0
2017-Nov-09 14:57N 71°07' E 025°50'0 0.0
2017-Nov-09 14:27N 71°07' E 025°50'0 0.0
2017-Nov-09 13:54N 71°07' E 025°50'0 0.0
2017-Nov-09 13:30N 71°07' E 025°50'0 0.9
2017-Nov-09 12:59N 71°07' E 025°51'0 0.9
2017-Nov-09 12:28N 71°07' E 025°50'0 0.0
2017-Nov-09 11:58N 71°07' E 025°50'0 0.0
2017-Nov-09 11:25N 71°07' E 025°50'0 0.0
2017-Nov-09 10:58N 71°07' E 025°50'0 0.0
2017-Nov-09 10:25N 71°07' E 025°50'0 0.0
2017-Nov-09 09:55N 71°07' E 025°50'0 0.0
2017-Nov-09 09:25N 71°07' E 025°50'0 0.0
2017-Nov-09 08:58N 71°07' E 025°50'0 0.0
2017-Nov-09 08:28N 71°07' E 025°50'0 0.0
2017-Nov-09 07:58N 71°07' E 025°50'0 0.0
2017-Nov-09 07:28N 71°07' E 025°50'0 0.0
2017-Nov-09 06:58N 71°07' E 025°50'0 0.0
2017-Nov-09 06:25N 71°07' E 025°50'0 0.0
2017-Nov-09 05:58N 71°07' E 025°50'0 0.0
2017-Nov-09 05:28N 71°07' E 025°50'0 0.0
2017-Nov-09 04:55N 71°07' E 025°50'0 0.0
2017-Nov-09 04:25N 71°07' E 025°50'0 0.0
2017-Nov-09 03:55N 71°07' E 025°50'0 0.0
2017-Nov-09 03:25N 71°07' E 025°50'0 0.0
2017-Nov-09 02:55N 71°07' E 025°50'0 0.0
2017-Nov-09 02:22N 71°07' E 025°50'0 0.0
2017-Nov-09 01:58N 71°07' E 025°50'0 0.0
2017-Nov-09 01:28N 71°07' E 025°50'0 0.0
2017-Nov-09 00:55N 71°07' E 025°50'0 0.0
2017-Nov-09 00:28N 71°07' E 025°50'0 0.0
2017-Nov-08 23:58N 71°07' E 025°50'0 0.0
2017-Nov-08 23:28N 71°07' E 025°50'0 0.0
2017-Nov-08 22:55N 71°07' E 025°50'0 0.0
2017-Nov-08 22:28N 71°07' E 025°50'0 0.0
2017-Nov-08 21:58N 71°07' E 025°50'2 4.5
2017-Nov-08 21:30N 71°09' E 025°52'4 7.3
2017-Nov-08 21:00N 71°11' E 025°44'4 8.1
2017-Nov-08 20:30N 71°11' E 025°31'4 7.1
2017-Nov-08 19:59N 71°07' E 025°25'3 6.1
2017-Nov-08 19:30N 71°06' E 025°16'4 7.4
2017-Nov-08 19:00N 71°05' E 025°06'4 7.5
2017-Nov-08 18:30N 71°03' E 024°56'4 8.0
2017-Nov-08 18:00N 71°00' E 024°47'2 4.8
2017-Nov-08 17:30N 70°60' E 024°40'0 0.0
2017-Nov-08 17:00N 70°60' E 024°40'0 0.0
2017-Nov-08 16:30N 70°60' E 024°40'0 0.0
2017-Nov-08 16:00N 70°60' E 024°40'1 1.4
2017-Nov-08 15:30N 70°60' E 024°42'0 0.2
2017-Nov-08 15:00N 70°60' E 024°42'0 0.2
2017-Nov-08 14:28N 70°60' E 024°42'1 1.9
2017-Nov-08 14:00N 70°60' E 024°39'3 6.0
2017-Nov-08 13:30N 70°58' E 024°33'0 0.3
2017-Nov-08 13:00N 70°57' E 024°33'0 0.5
2017-Nov-08 12:30N 70°58' E 024°32'0 0.1
2017-Nov-08 12:00N 70°58' E 024°32'0 0.9
2017-Nov-08 11:29N 70°58' E 024°34'1 1.0
2017-Nov-08 11:00N 70°58' E 024°32'1 1.8
2017-Nov-08 10:30N 70°57' E 024°35'0 0.7
2017-Nov-08 10:00N 70°57' E 024°34'0 0.7
2017-Nov-08 09:30N 70°57' E 024°33'0 0.3
2017-Nov-08 09:00N 70°57' E 024°33'1 1.2
2017-Nov-08 08:30N 70°58' E 024°31'1 1.5
2017-Nov-08 08:00N 70°57' E 024°34'1 2.6
2017-Nov-08 07:31N 70°59' E 024°32'3 4.9
2017-Nov-08 06:59N 70°60' E 024°40'0 0.0
2017-Nov-08 06:29N 70°60' E 024°40'0 0.0
2017-Nov-08 05:59N 70°60' E 024°40'0 0.0
2017-Nov-08 05:29N 70°60' E 024°40'0 0.0
2017-Nov-08 04:59N 70°60' E 024°40'0 0.0
2017-Nov-08 04:29N 70°60' E 024°40'0 0.0
2017-Nov-08 03:59N 70°60' E 024°40'0 0.0
2017-Nov-08 03:29N 70°60' E 024°40'0 0.0
2017-Nov-08 02:59N 70°60' E 024°40'0 0.0
2017-Nov-08 02:29N 70°60' E 024°40'0 0.0
2017-Nov-08 01:59N 70°60' E 024°40'0 0.0
2017-Nov-08 01:29N 70°60' E 024°40'0 0.0
2017-Nov-08 00:59N 70°60' E 024°40'0 0.0
2017-Nov-08 00:29N 70°60' E 024°40'0 0.0
2017-Nov-07 23:59N 70°60' E 024°40'0 0.0
2017-Nov-07 23:29N 70°60' E 024°40'0 0.0
2017-Nov-07 22:59N 70°60' E 024°40'0 0.0
2017-Nov-07 22:29N 70°60' E 024°40'0 0.0
2017-Nov-07 21:59N 70°60' E 024°40'0 0.0
2017-Nov-07 21:29N 70°60' E 024°40'0 0.0
2017-Nov-07 20:59N 70°60' E 024°40'0 0.0
2017-Nov-07 20:29N 70°60' E 024°40'0 0.0
2017-Nov-07 19:59N 70°60' E 024°40'0 0.0
2017-Nov-07 19:29N 70°60' E 024°40'0 0.0
2017-Nov-07 18:59N 70°60' E 024°40'0 0.0
2017-Nov-07 18:29N 70°60' E 024°40'0 0.0
2017-Nov-07 17:59N 70°60' E 024°40'0 0.0
2017-Nov-07 17:29N 70°60' E 024°40'0 0.0
2017-Nov-07 16:59N 70°60' E 024°40'2 4.6
2017-Nov-07 16:30N 70°59' E 024°34'1 2.7
2017-Nov-07 16:00N 70°58' E 024°33'0 0.2
2017-Nov-07 15:30N 70°58' E 024°33'0 0.3
2017-Nov-07 15:00N 70°58' E 024°32'0 0.2
2017-Nov-07 14:29N 70°58' E 024°32'0 0.5
2017-Nov-07 13:59N 70°58' E 024°33'0 0.4
2017-Nov-07 13:30N 70°57' E 024°33'0 0.5
2017-Nov-07 13:00N 70°58' E 024°34'0 0.4
2017-Nov-07 12:29N 70°57' E 024°34'1 1.3
2017-Nov-07 12:00N 70°57' E 024°32'0 0.9
2017-Nov-07 11:30N 70°57' E 024°31'1 1.4
2017-Nov-07 10:59N 70°58' E 024°33'0 0.4
2017-Nov-07 10:29N 70°57' E 024°33'1 1.3
2017-Nov-07 09:59N 70°58' E 024°35'1 2.9
2017-Nov-07 09:30N 70°59' E 024°32'3 5.2
2017-Nov-07 09:00N 70°60' E 024°40'0 0.0
2017-Nov-07 08:28N 70°60' E 024°40'0 0.0
2017-Nov-07 07:58N 70°60' E 024°40'0 0.0
2017-Nov-07 07:28N 70°60' E 024°40'0 0.0
2017-Nov-07 06:58N 70°60' E 024°40'0 0.0
2017-Nov-07 06:28N 70°60' E 024°40'0 0.0
2017-Nov-07 05:58N 70°60' E 024°40'0 0.0
2017-Nov-07 05:28N 70°60' E 024°40'0 0.0
2017-Nov-07 04:58N 70°60' E 024°40'0 0.0
2017-Nov-07 04:28N 70°60' E 024°40'0 0.0
2017-Nov-07 03:58N 70°60' E 024°40'0 0.0
2017-Nov-07 03:28N 70°60' E 024°40'0 0.0
2017-Nov-07 02:58N 70°60' E 024°40'0 0.0
2017-Nov-07 02:28N 70°60' E 024°40'0 0.0
2017-Nov-07 01:58N 70°60' E 024°40'0 0.0
2017-Nov-07 01:28N 70°60' E 024°40'0 0.0
2017-Nov-07 00:58N 70°60' E 024°40'0 0.0
2017-Nov-07 00:28N 70°60' E 024°40'0 0.0
2017-Nov-06 23:58N 70°60' E 024°40'0 0.0
2017-Nov-06 23:28N 70°60' E 024°40'0 0.0
2017-Nov-06 22:58N 70°60' E 024°40'0 0.0
2017-Nov-06 22:28N 70°60' E 024°40'0 0.0
2017-Nov-06 21:58N 70°60' E 024°40'0 0.0
2017-Nov-06 21:28N 70°60' E 024°40'0 0.0
2017-Nov-06 20:58N 70°60' E 024°40'0 0.0
2017-Nov-06 20:28N 70°60' E 024°40'  

Dump ship's entire track history